Terminal Aerodrome Forecast
Issued by NWS

Home | Current Version | Previous Version | Text Only | Print | Product List | Glossary On
Versions: 1 2 3 4 5 6 7 8 9 10 11 12 13 14 15 16 17 18 19 20 21 22 23 24 25 26 27 28 29 30 31
000
FTUS45 KSLC 301120
TAFOGD
TAF
KOGD 301120Z 3012/3112 17011KT P6SM VCSH SCT040 BKN070
     FM302200 30010KT P6SM -SHRA SCT020 BKN035
     FM310700 36009KT P6SM VCSH SCT020 BKN040=

USA.gov is the U.S. government's official web portal to all federal, state and local government web resources and services.